Station History

Weather Underground - logo

Station Historical Data
Daily Summary for January 15, 2018 Units:  English    Metric   Both
« Previous Day
Next Day »
Daily Weekly Monthly Yearly Custom
  High: Low: Average:
Temperature: 62.8 °F 40.4 °F 51.2 °F
Dew Point: 55.0 °F 39.6 °F 48.2 °F
Humidity: 98 % 73 % 90 %
Wind Speed: 4.6 mph 0.0 mph 0.5 mph
Wind Gust: 4.6 mph - -
Wind:- - SSW
Pressure: 30.19 in 30.07 in -
Precipitation: 0.01 in    
Historical Graphs
 
 
Tabular Data for January 15, 2018
Time Temperature Dew Point Pressure Wind Wind Speed Wind Gust Humidity Rainfall Rate (Hourly)
00:05 46.9 °F 46.1 °F 30.16 in ESE 1.2 mph   97 % 0.00 in
00:16 46.9 °F 46.1 °F 30.18 in Calm     97 % 0.00 in
00:25 46.6 °F 45.8 °F 30.18 in Calm     97 % 0.00 in
00:38 45.7 °F 44.6 °F 30.19 in ESE 1.2 mph 1.2 mph 96 % 0.00 in
00:44 45.8 °F 45.0 °F 30.19 in Calm     97 % 0.00 in
01:03 46.0 °F 45.2 °F 30.18 in Calm     97 % 0.00 in
01:13 46.3 °F 45.5 °F 30.19 in Calm     97 % 0.01 in
01:24 45.5 °F 44.7 °F 30.18 in Calm     97 % 0.01 in
01:30 45.4 °F 44.6 °F 30.17 in Calm     97 % 0.01 in
01:43 44.9 °F 44.1 °F 30.16 in Calm     97 % 0.01 in
01:55 44.3 °F 43.2 °F 30.15 in Calm     96 % 0.01 in
02:01 44.1 °F 43.0 °F 30.15 in Calm     96 % 0.01 in
02:06 44.0 °F 42.9 °F 30.14 in ESE 4.6 mph 4.6 mph 96 % 0.00 in
02:11 43.7 °F 42.6 °F 30.14 in Calm     96 % 0.00 in
02:17 43.4 °F 42.3 °F 30.14 in Calm     96 % 0.00 in
02:29 43.1 °F 42.0 °F 30.13 in Calm     96 % 0.00 in
02:40 42.7 °F 41.6 °F 30.12 in Calm     96 % 0.00 in
02:55 42.5 °F 41.7 °F 30.11 in ESE 1.2 mph   97 % 0.00 in
03:00 42.7 °F 41.9 °F 30.12 in Calm     97 % 0.00 in
03:09 42.7 °F 41.9 °F 30.12 in Calm     97 % 0.00 in
03:15 42.8 °F 42.0 °F 30.11 in Calm     97 % 0.00 in
03:21 42.7 °F 41.9 °F 30.11 in Calm     97 % 0.00 in
03:29 42.5 °F 41.7 °F 30.12 in Calm     97 % 0.00 in
03:36 42.4 °F 41.6 °F 30.11 in ESE 1.2 mph 1.2 mph 97 % 0.00 in
03:45 42.3 °F 41.5 °F 30.12 in Calm     97 % 0.00 in
03:51 42.5 °F 41.7 °F 30.12 in Calm     97 % 0.00 in
03:58 42.7 °F 41.9 °F 30.12 in ESE 1.2 mph 1.2 mph 97 % 0.00 in
04:08 42.8 °F 42.0 °F 30.12 in ESE 1.2 mph 1.2 mph 97 % 0.00 in
04:17 42.9 °F 42.1 °F 30.13 in Calm     97 % 0.00 in
04:25 43.1 °F 42.3 °F 30.13 in Calm     97 % 0.00 in
04:32 43.3 °F 42.5 °F 30.13 in Calm     97 % 0.00 in
04:37 43.3 °F 42.5 °F 30.13 in Calm     97 % 0.00 in
04:46 43.3 °F 42.5 °F 30.14 in ESE 1.0 mph   97 % 0.00 in
04:55 43.2 °F 42.4 °F 30.14 in WNW 1.2 mph   97 % 0.00 in
05:02 42.9 °F 42.1 °F 30.14 in Calm     97 % 0.00 in
05:07 42.9 °F 42.1 °F 30.14 in Calm     97 % 0.00 in
05:20 42.9 °F 42.1 °F 30.14 in Calm     97 % 0.00 in
05:26 42.9 °F 42.1 °F 30.15 in Calm     97 % 0.00 in
05:31 43.0 °F 42.2 °F 30.15 in Calm     97 % 0.00 in
06:00 41.9 °F 41.1 °F 30.15 in Calm     97 % 0.00 in
06:26 41.6 °F 40.8 °F 30.15 in Calm     97 % 0.00 in
06:31 41.5 °F 40.7 °F 30.15 in Calm     97 % 0.00 in
06:54 40.9 °F 40.1 °F 30.16 in Calm     97 % 0.00 in
07:09 40.6 °F 39.8 °F 30.16 in Calm     97 % 0.00 in
07:19 40.4 °F 39.6 °F 30.16 in Calm     97 % 0.00 in
07:33 40.4 °F 39.6 °F 30.17 in Calm     97 % 0.00 in
07:40 40.6 °F 39.8 °F 30.16 in Calm     97 % 0.00 in
07:46 40.9 °F 40.1 °F 30.16 in Calm     97 % 0.00 in
08:04 41.9 °F 41.1 °F 30.15 in Calm     97 % 0.00 in
08:18 44.3 °F 43.8 °F 30.15 in Calm     98 % 0.00 in
08:45 46.6 °F 46.1 °F 30.15 in SE 1.0 mph 1.0 mph 98 % 0.00 in
08:55 48.3 °F 47.8 °F 30.15 in SE 1.2 mph   98 % 0.00 in
09:06 48.7 °F 48.2 °F 30.15 in West 1.2 mph   98 % 0.00 in
09:14 48.9 °F 48.4 °F 30.15 in West 1.2 mph 1.2 mph 98 % 0.00 in
09:19 49.4 °F 48.9 °F 30.15 in NW 2.3 mph 2.3 mph 98 % 0.00 in
09:28 50.3 °F 49.8 °F 30.15 in WNW 1.0 mph 1.0 mph 98 % 0.00 in
09:33 50.6 °F 49.8 °F 30.15 in NW 1.2 mph 1.2 mph 97 % 0.00 in
09:38 51.3 °F 50.5 °F 30.15 in SE 1.2 mph 1.2 mph 97 % 0.00 in
09:44 52.0 °F 50.9 °F 30.16 in WSW 3.5 mph 3.5 mph 96 % 0.00 in
09:50 52.6 °F 50.6 °F 30.16 in North 3.5 mph 3.5 mph 93 % 0.00 in
10:02 52.8 °F 50.2 °F 30.17 in West 3.5 mph 3.5 mph 91 % 0.00 in
10:07 52.6 °F 50.0 °F 30.16 in NW 1.2 mph 1.2 mph 91 % 0.00 in
10:12 52.8 °F 50.2 °F 30.16 in NW 1.2 mph 1.2 mph 91 % 0.00 in
10:25 53.1 °F 50.2 °F 30.16 in NW 1.2 mph 1.2 mph 90 % 0.00 in
10:36 53.6 °F 50.7 °F 30.16 in Calm     90 % 0.00 in
10:42 54.3 °F 51.4 °F 30.16 in WNW 1.2 mph 1.2 mph 90 % 0.00 in
10:52 55.1 °F 51.6 °F 30.16 in SE 1.2 mph 1.2 mph 88 % 0.00 in
10:58 55.5 °F 51.4 °F 30.16 in WNW 2.3 mph 2.3 mph 86 % 0.00 in
11:10 56.0 °F 51.6 °F 30.16 in Calm     85 % 0.00 in
11:16 56.8 °F 52.0 °F 30.16 in North 2.3 mph 2.3 mph 84 % 0.00 in
11:26 57.4 °F 51.9 °F 30.16 in North 1.2 mph 1.2 mph 82 % 0.00 in
11:33 57.9 °F 52.8 °F 30.16 in West 2.3 mph 2.3 mph 83 % 0.00 in
11:44 57.8 °F 52.0 °F 30.16 in NW 1.2 mph 1.2 mph 81 % 0.00 in
11:49 57.5 °F 52.0 °F 30.16 in Calm     82 % 0.00 in
12:02 57.5 °F 52.0 °F 30.15 in Calm     82 % 0.00 in
12:11 58.1 °F 52.6 °F 30.15 in Calm     82 % 0.00 in
12:16 58.6 °F 52.8 °F 30.14 in Calm     81 % 0.00 in
12:28 59.8 °F 53.6 °F 30.13 in SSE 2.3 mph 2.3 mph 80 % 0.00 in
12:36 60.3 °F 53.4 °F 30.13 in Calm     78 % 0.00 in
12:46 60.8 °F 53.9 °F 30.13 in Calm     78 % 0.00 in
12:47 60.8 °F 53.9 °F 30.13 in Calm     78 % 0.00 in
12:48 60.9 °F 53.6 °F 30.13 in Calm   0.2 mph 77 % 0.00 in
12:49 61.0 °F 53.7 °F 30.13 in ENE 1.2 mph 1.2 mph 77 % 0.00 in
12:50 61.0 °F 53.4 °F 30.13 in ENE 1.2 mph 1.2 mph 76 % 0.00 in
12:52 61.1 °F 53.8 °F 30.12 in ESE 1.2 mph 1.2 mph 77 % 0.00 in
12:53 61.1 °F 53.5 °F 30.12 in ESE 1.2 mph 1.2 mph 76 % 0.00 in
12:55 61.1 °F 53.5 °F 30.12 in Calm     76 % 0.00 in
12:59 61.2 °F 53.9 °F 30.12 in Calm     77 % 0.00 in
13:02 61.4 °F 54.1 °F 30.12 in Calm     77 % 0.00 in
13:06 61.6 °F 53.6 °F 30.12 in Calm     75 % 0.00 in
13:17 61.8 °F 53.8 °F 30.11 in Calm     75 % 0.00 in
13:26 61.8 °F 54.2 °F 30.11 in ESE 1.2 mph 1.2 mph 76 % 0.00 in
13:31 61.7 °F 54.1 °F 30.11 in Calm     76 % 0.00 in
13:38 61.6 °F 54.3 °F 30.11 in Calm     77 % 0.00 in
14:05 61.4 °F 54.8 °F 30.09 in Calm     79 % 0.00 in
14:13 61.5 °F 54.6 °F 30.09 in Calm     78 % 0.00 in
14:21 61.6 °F 54.3 °F 30.10 in Calm     77 % 0.00 in
14:34 61.8 °F 54.5 °F 30.10 in Calm     77 % 0.00 in
14:42 62.0 °F 54.7 °F 30.10 in NW 1.0 mph 1.0 mph 77 % 0.00 in
14:55 62.3 °F 55.0 °F 30.11 in Calm     77 % 0.00 in
15:04 62.4 °F 54.7 °F 30.11 in NW 2.3 mph 2.3 mph 76 % 0.00 in
15:10 62.5 °F 54.8 °F 30.11 in Calm     76 % 0.00 in
15:17 62.6 °F 54.2 °F 30.10 in Calm     74 % 0.00 in
15:32 62.8 °F 54.0 °F 30.09 in Calm     73 % 0.00 in
15:37 62.8 °F 54.4 °F 30.09 in Calm     74 % 0.00 in
15:59 62.2 °F 54.9 °F 30.11 in NW 1.2 mph   77 % 0.00 in
16:17 61.7 °F 54.1 °F 30.10 in Calm   0.1 mph 76 % 0.00 in
16:23 61.8 °F 54.2 °F 30.10 in NNW 1.2 mph   76 % 0.00 in
16:30 61.7 °F 54.1 °F 30.08 in Calm     76 % 0.00 in
16:50 60.9 °F 54.0 °F 30.08 in Calm     78 % 0.00 in
17:14 58.4 °F 53.6 °F 30.08 in Calm     84 % 0.00 in
17:26 57.5 °F 53.3 °F 30.08 in Calm     86 % 0.00 in
17:32 57.1 °F 53.0 °F 30.08 in Calm     86 % 0.00 in
17:49 56.1 °F 52.9 °F 30.07 in Calm     89 % 0.00 in
18:04 55.1 °F 52.2 °F 30.08 in Calm     90 % 0.00 in
18:15 54.7 °F 51.8 °F 30.08 in Calm     90 % 0.00 in
18:25 54.2 °F 51.6 °F 30.08 in Calm     91 % 0.00 in
18:32 53.6 °F 51.0 °F 30.08 in Calm     91 % 0.00 in
18:48 53.0 °F 50.7 °F 30.09 in Calm     92 % 0.00 in
19:09 52.0 °F 50.0 °F 30.09 in Calm     93 % 0.00 in
19:16 51.8 °F 49.8 °F 30.09 in Calm     93 % 0.00 in
19:26 51.6 °F 49.9 °F 30.09 in Calm     94 % 0.00 in
19:46 51.7 °F 50.0 °F 30.09 in Calm     94 % 0.00 in
20:14 50.2 °F 48.5 °F 30.11 in Calm     94 % 0.00 in
20:33 49.7 °F 48.3 °F 30.14 in NW 1.2 mph 1.2 mph 95 % 0.00 in
20:49 50.7 °F 49.6 °F 30.15 in NW 1.2 mph 1.2 mph 96 % 0.00 in
21:02 50.8 °F 49.7 °F 30.15 in Calm     96 % 0.00 in
21:15 50.3 °F 49.2 °F 30.15 in Calm     96 % 0.00 in
21:23 50.3 °F 49.2 °F 30.15 in Calm     96 % 0.00 in
21:41 49.8 °F 48.7 °F 30.15 in Calm     96 % 0.00 in
21:53 49.1 °F 47.7 °F 30.16 in Calm     95 % 0.00 in
21:58 48.7 °F 47.3 °F 30.15 in Calm     95 % 0.00 in
22:11 48.4 °F 47.3 °F 30.14 in ESE 1.2 mph   96 % 0.00 in
22:17 48.4 °F 47.3 °F 30.14 in Calm     96 % 0.00 in
22:23 48.6 °F 47.5 °F 30.14 in Calm     96 % 0.00 in
22:54 47.2 °F 45.8 °F 30.15 in Calm     95 % 0.00 in
23:00 47.4 °F 46.3 °F 30.15 in Calm     96 % 0.00 in
23:06 47.1 °F 46.0 °F 30.15 in Calm     96 % 0.00 in
23:11 47.0 °F 45.9 °F 30.15 in Calm     96 % 0.00 in
23:18 47.2 °F 46.1 °F 30.15 in Calm     96 % 0.00 in
23:25 47.2 °F 46.1 °F 30.15 in Calm     96 % 0.00 in
23:32 47.2 °F 46.1 °F 30.14 in Calm     96 % 0.00 in
23:53 47.2 °F 46.1 °F 30.15 in Calm     96 % 0.00 in
Park Place, Exeter, Tulare County, California, USA
Compliments of Weather Underground - 2 mb